createdAt,value
2022-11-30T00:01:13.214Z,5.57
2022-11-30T00:03:39.752Z,5.00
2022-11-30T00:06:07.965Z,5.73
2022-11-30T00:08:34.471Z,4.97
2022-11-30T00:11:01.111Z,4.97
2022-11-30T00:13:27.628Z,5.33
2022-11-30T00:15:54.042Z,5.20
2022-11-30T00:18:20.605Z,4.83
2022-11-30T00:20:46.957Z,4.87
2022-11-30T00:23:13.366Z,4.97
2022-11-30T00:25:39.762Z,4.17
2022-11-30T00:28:06.230Z,4.90
2022-11-30T00:30:32.684Z,5.93
2022-11-30T00:32:59.235Z,5.37
2022-11-30T00:35:25.699Z,4.43
2022-11-30T00:37:52.250Z,4.87
2022-11-30T00:40:18.702Z,4.30
2022-11-30T00:42:45.142Z,4.37
2022-11-30T00:45:11.562Z,5.03
2022-11-30T00:47:38.069Z,4.90
2022-11-30T00:50:05.007Z,4.40
2022-11-30T00:52:31.492Z,4.10
2022-11-30T00:54:57.914Z,4.50
2022-11-30T00:57:24.306Z,5.20
2022-11-30T00:59:50.736Z,4.97
2022-11-30T01:02:18.777Z,6.03
2022-11-30T01:04:45.477Z,5.00
2022-11-30T01:07:12.017Z,4.53
2022-11-30T01:09:38.528Z,4.90
2022-11-30T01:12:05.040Z,4.10
2022-11-30T01:14:31.432Z,4.50
2022-11-30T01:16:58.972Z,4.83
2022-11-30T01:19:25.495Z,4.20
2022-11-30T01:21:51.909Z,3.80
2022-11-30T01:24:18.301Z,4.90
2022-11-30T01:26:44.711Z,4.23
2022-11-30T01:29:11.099Z,4.20
2022-11-30T01:31:37.528Z,3.97
2022-11-30T01:34:03.976Z,4.40
2022-11-30T01:36:30.383Z,4.63
2022-11-30T01:38:58.200Z,3.30
2022-11-30T01:41:30.795Z,3.60
2022-11-30T01:44:06.281Z,3.90
2022-11-30T01:47:11.510Z,3.77
2022-11-30T01:49:44.085Z,3.57
2022-11-30T01:52:24.697Z,4.03
2022-11-30T01:54:56.946Z,3.67
2022-11-30T01:57:34.545Z,4.03
2022-11-30T02:00:02.295Z,3.70
2022-11-30T02:02:40.398Z,2.90
2022-11-30T02:05:08.016Z,3.20
2022-11-30T02:07:35.191Z,3.13
2022-11-30T02:10:01.717Z,3.17
2022-11-30T02:12:39.879Z,3.47
2022-11-30T02:15:11.915Z,3.30
2022-11-30T02:18:14.461Z,2.87
2022-11-30T02:21:13.324Z,2.50
2022-11-30T02:23:58.046Z,3.00
2022-11-30T02:26:54.639Z,3.20
2022-11-30T02:29:49.665Z,3.00
2022-11-30T02:32:34.912Z,2.80
2022-11-30T02:35:04.145Z,2.67
2022-11-30T02:37:33.298Z,2.87
2022-11-30T02:39:59.804Z,2.60
2022-11-30T02:42:26.199Z,3.00
2022-11-30T02:44:54.044Z,3.60
2022-11-30T02:47:35.339Z,3.10
2022-11-30T02:50:10.232Z,2.77
2022-11-30T02:52:36.777Z,2.77
2022-11-30T02:55:07.100Z,2.67
2022-11-30T02:57:34.471Z,2.93
2022-11-30T03:00:03.949Z,2.23
2022-11-30T03:02:30.464Z,2.10
2022-11-30T03:04:56.987Z,2.40
2022-11-30T03:07:23.479Z,3.33
2022-11-30T03:09:50.287Z,3.07
2022-11-30T03:12:16.699Z,2.80
2022-11-30T03:14:43.087Z,2.30
2022-11-30T03:17:09.604Z,2.97
2022-11-30T03:19:36.007Z,2.53
2022-11-30T03:22:02.427Z,3.60
2022-11-30T03:24:28.891Z,3.80
2022-11-30T03:26:55.351Z,4.00
2022-11-30T03:29:21.929Z,3.60
2022-11-30T03:31:48.345Z,4.73
2022-11-30T03:34:14.854Z,4.30
2022-11-30T03:36:41.276Z,4.40
2022-11-30T03:39:07.777Z,4.90
2022-11-30T03:41:34.150Z,4.90
2022-11-30T03:44:00.651Z,5.63
2022-11-30T03:46:27.628Z,6.20
2022-11-30T03:48:54.364Z,6.80
2022-11-30T03:51:20.907Z,7.57
2022-11-30T03:53:47.450Z,7.13
2022-11-30T03:56:14.412Z,5.80
2022-11-30T03:58:40.979Z,7.57
2022-11-30T04:01:19.318Z,8.43
2022-11-30T04:03:45.802Z,8.87
2022-11-30T04:06:13.076Z,8.77
2022-11-30T04:08:40.275Z,9.03
2022-11-30T04:11:08.223Z,9.80
2022-11-30T04:13:36.224Z,6.13
2022-11-30T04:16:03.465Z,10.30
2022-11-30T04:18:32.221Z,7.13
2022-11-30T04:20:59.719Z,8.77
2022-11-30T04:23:30.135Z,8.87
2022-11-30T04:25:57.374Z,10.00
2022-11-30T04:28:23.817Z,10.43
2022-11-30T04:30:50.351Z,9.10
2022-11-30T04:33:17.219Z,10.07
2022-11-30T04:35:47.317Z,9.27
2022-11-30T04:38:14.098Z,10.43
2022-11-30T04:40:41.779Z,11.70
2022-11-30T04:43:09.417Z,10.87
2022-11-30T04:45:36.091Z,10.53
2022-11-30T04:48:03.639Z,9.50
2022-11-30T04:50:30.120Z,10.17
2022-11-30T04:52:57.378Z,10.90
2022-11-30T04:55:24.227Z,10.53
2022-11-30T04:57:50.764Z,12.13
2022-11-30T05:00:18.989Z,11.40
2022-11-30T05:02:52.221Z,11.20
2022-11-30T05:05:19.501Z,11.27
2022-11-30T05:07:50.596Z,11.80
2022-11-30T05:10:17.490Z,10.50
2022-11-30T05:12:43.917Z,11.30
2022-11-30T05:15:10.577Z,11.80
2022-11-30T05:17:37.043Z,10.33
2022-11-30T05:20:04.070Z,10.70
2022-11-30T05:22:30.692Z,10.57
2022-11-30T05:24:57.124Z,12.53
2022-11-30T05:27:23.535Z,12.07
2022-11-30T05:29:49.956Z,10.77
2022-11-30T05:32:16.337Z,12.00
2022-11-30T05:34:50.483Z,12.57
2022-11-30T05:37:18.056Z,11.87
2022-11-30T05:39:44.528Z,11.87
2022-11-30T05:42:10.904Z,11.77
2022-11-30T05:44:37.318Z,11.07
2022-11-30T05:47:04.038Z,12.93
2022-11-30T05:49:30.485Z,13.27
2022-11-30T05:51:56.850Z,11.50
2022-11-30T05:54:23.347Z,12.23
2022-11-30T05:56:54.490Z,13.30
2022-11-30T05:59:21.605Z,13.07
2022-11-30T06:01:48.157Z,12.93
2022-11-30T06:04:14.647Z,12.90
2022-11-30T06:06:41.057Z,13.73
2022-11-30T06:09:07.779Z,13.00
2022-11-30T06:11:35.250Z,11.87
2022-11-30T06:14:01.906Z,13.03
2022-11-30T06:16:28.511Z,11.43
2022-11-30T06:18:55.043Z,13.30
2022-11-30T06:21:24.605Z,14.33
2022-11-30T06:23:52.051Z,12.97
2022-11-30T06:26:18.493Z,13.03
2022-11-30T06:28:48.210Z,13.40
2022-11-30T06:31:16.005Z,13.07
2022-11-30T06:33:42.660Z,13.10
2022-11-30T06:36:09.486Z,14.40
2022-11-30T06:38:35.938Z,14.30
2022-11-30T06:41:10.383Z,13.90
2022-11-30T06:43:38.728Z,13.60
2022-11-30T06:46:06.913Z,12.50
2022-11-30T06:48:34.213Z,13.70
2022-11-30T06:51:00.688Z,13.53
2022-11-30T06:53:27.824Z,12.63
2022-11-30T06:55:54.548Z,13.83
2022-11-30T06:58:20.939Z,12.60
2022-11-30T07:00:47.720Z,13.70
2022-11-30T07:03:14.536Z,11.30
2022-11-30T07:05:43.957Z,13.63
2022-11-30T07:08:14.413Z,13.93
2022-11-30T07:10:45.752Z,13.47
2022-11-30T07:13:14.267Z,14.13
2022-11-30T07:15:42.277Z,11.73
2022-11-30T07:18:09.813Z,13.43
2022-11-30T07:20:37.560Z,13.93
2022-11-30T07:23:23.112Z,12.30
2022-11-30T07:26:09.399Z,14.73
2022-11-30T07:28:40.999Z,13.87
2022-11-30T07:31:17.508Z,14.53
2022-11-30T07:33:44.374Z,15.50
2022-11-30T07:36:11.232Z,14.43
2022-11-30T07:38:38.486Z,14.77
2022-11-30T07:41:05.531Z,15.20
2022-11-30T07:43:33.075Z,14.60
2022-11-30T07:46:00.711Z,14.27
2022-11-30T07:48:27.696Z,14.10
2022-11-30T07:50:54.456Z,16.07
2022-11-30T07:53:20.896Z,14.63
2022-11-30T07:55:48.271Z,14.93
2022-11-30T07:58:17.571Z,14.97
2022-11-30T08:00:44.427Z,14.83
2022-11-30T08:03:11.003Z,15.70
2022-11-30T08:05:37.468Z,14.47
2022-11-30T08:08:03.906Z,15.73
2022-11-30T08:10:30.439Z,14.00
2022-11-30T08:12:56.821Z,15.17
2022-11-30T08:15:27.529Z,13.33
2022-11-30T08:18:00.206Z,13.37
2022-11-30T08:20:26.691Z,15.20
2022-11-30T08:22:53.126Z,14.20
2022-11-30T08:25:19.519Z,16.07
2022-11-30T08:27:45.962Z,15.67
2022-11-30T08:30:12.672Z,15.57
2022-11-30T08:32:39.129Z,11.73
2022-11-30T08:35:06.063Z,13.90
2022-11-30T08:37:35.383Z,13.23
2022-11-30T08:40:01.810Z,14.73
2022-11-30T08:42:28.220Z,15.10
2022-11-30T08:44:55.769Z,10.90
2022-11-30T08:47:22.406Z,14.83
2022-11-30T08:49:49.042Z,13.43
2022-11-30T08:52:17.420Z,12.60
2022-11-30T08:54:46.594Z,11.33
2022-11-30T08:57:14.815Z,10.57
2022-11-30T08:59:41.217Z,11.17
2022-11-30T09:02:10.532Z,10.27
2022-11-30T09:04:38.033Z,10.97
2022-11-30T09:07:04.502Z,12.30
2022-11-30T09:09:31.458Z,11.10
2022-11-30T09:11:57.940Z,13.97
2022-11-30T09:14:24.446Z,14.40
2022-11-30T09:16:50.890Z,11.30
2022-11-30T09:19:17.308Z,11.10
2022-11-30T09:21:51.023Z,11.23
2022-11-30T09:24:18.192Z,10.30
2022-11-30T09:26:44.630Z,10.70
2022-11-30T09:29:11.028Z,10.77
2022-11-30T09:31:37.486Z,10.33
2022-11-30T09:34:03.931Z,10.53
2022-11-30T09:36:30.961Z,11.47
2022-11-30T09:38:57.477Z,11.60
2022-11-30T09:41:58.614Z,11.33
2022-11-30T09:44:43.465Z,10.80
2022-11-30T09:47:19.160Z,13.00
2022-11-30T09:49:48.586Z,16.97
2022-11-30T09:52:22.954Z,12.10
2022-11-30T09:54:49.746Z,17.30
2022-11-30T09:57:19.126Z,14.97
2022-11-30T09:59:53.402Z,17.10
2022-11-30T10:02:22.338Z,12.67
2022-11-30T10:04:49.473Z,11.17
2022-11-30T10:07:53.629Z,12.10
2022-11-30T10:10:46.489Z,11.77
2022-11-30T10:13:39.293Z,16.07
2022-11-30T10:16:16.659Z,16.10
2022-11-30T10:19:05.752Z,17.00
2022-11-30T10:21:41.210Z,13.27
2022-11-30T10:24:10.578Z,12.77
2022-11-30T10:26:43.071Z,12.93
2022-11-30T10:29:24.956Z,12.93
2022-11-30T10:31:57.094Z,11.67
2022-11-30T10:34:28.856Z,11.50
2022-11-30T10:37:12.738Z,12.63
2022-11-30T10:39:55.737Z,12.87
2022-11-30T10:42:34.470Z,13.40
2022-11-30T10:45:06.282Z,12.97
2022-11-30T10:47:37.270Z,13.27
2022-11-30T10:50:06.107Z,16.23
2022-11-30T10:52:48.486Z,13.93
2022-11-30T10:55:21.891Z,13.17
2022-11-30T10:57:54.146Z,15.43
2022-11-30T11:00:21.001Z,14.30
2022-11-30T11:02:49.384Z,20.67
2022-11-30T11:05:21.906Z,22.87
2022-11-30T11:07:52.329Z,17.67
2022-11-30T11:10:36.835Z,23.17
2022-11-30T11:13:05.106Z,18.70
2022-11-30T11:15:33.714Z,24.03
2022-11-30T11:18:22.853Z,25.73
2022-11-30T11:21:04.389Z,24.80
2022-11-30T11:23:42.533Z,19.73
2022-11-30T11:26:22.589Z,21.17
2022-11-30T11:28:51.824Z,23.00
2022-11-30T11:31:24.439Z,22.67
2022-11-30T11:33:54.162Z,19.70
2022-11-30T11:36:32.044Z,23.70
2022-11-30T11:38:59.196Z,22.43
2022-11-30T11:41:31.459Z,18.63
2022-11-30T11:44:10.097Z,18.97
2022-11-30T11:46:51.862Z,20.50
2022-11-30T11:49:22.890Z,20.80
2022-11-30T11:52:07.365Z,19.27
2022-11-30T11:54:43.251Z,19.33
2022-11-30T11:57:15.735Z,17.47
2022-11-30T12:00:05.406Z,20.70
2022-11-30T12:02:48.886Z,19.77
2022-11-30T12:05:26.870Z,19.80
2022-11-30T12:08:17.706Z,19.77
2022-11-30T12:11:00.493Z,19.40
2022-11-30T12:13:34.265Z,16.37
2022-11-30T12:16:39.599Z,17.27
2022-11-30T12:19:22.609Z,19.27
2022-11-30T12:22:07.470Z,18.17
2022-11-30T12:25:04.261Z,16.00
2022-11-30T12:27:35.212Z,17.87
2022-11-30T12:30:25.217Z,17.30
2022-11-30T12:33:10.440Z,15.30
2022-11-30T12:35:50.078Z,15.93
2022-11-30T12:38:39.337Z,15.47
2022-11-30T12:41:31.319Z,15.10
2022-11-30T12:44:23.363Z,13.70
2022-11-30T12:47:17.694Z,13.27
2022-11-30T12:50:10.540Z,12.87
2022-11-30T12:52:54.163Z,12.63
2022-11-30T12:55:48.393Z,13.50
2022-11-30T12:58:24.927Z,11.30
2022-11-30T13:01:13.799Z,12.07
2022-11-30T13:03:51.464Z,11.33
2022-11-30T13:06:26.971Z,11.00
2022-11-30T13:09:06.139Z,12.37
2022-11-30T13:11:37.612Z,10.57
2022-11-30T13:14:25.712Z,10.40
2022-11-30T13:17:06.144Z,10.40
2022-11-30T13:19:48.203Z,11.20
2022-11-30T13:22:26.413Z,13.10
2022-11-30T13:25:59.774Z,14.83
2022-11-30T13:28:19.372Z,11.27
2022-11-30T13:31:15.005Z,10.70
2022-11-30T13:33:49.013Z,13.53
2022-11-30T13:36:43.560Z,12.20
2022-11-30T13:39:25.227Z,12.40
2022-11-30T13:42:08.522Z,11.97
2022-11-30T13:44:38.178Z,13.87
2022-11-30T13:47:15.944Z,12.67
2022-11-30T13:49:42.526Z,12.33
2022-11-30T13:52:22.565Z,14.73
2022-11-30T13:54:54.585Z,14.43
2022-11-30T13:57:30.306Z,13.40
2022-11-30T14:00:01.485Z,12.93
2022-11-30T14:02:31.488Z,13.37
2022-11-30T14:05:16.446Z,11.93
2022-11-30T14:07:50.063Z,13.50
2022-11-30T14:10:30.745Z,15.10
2022-11-30T14:12:58.705Z,14.60
2022-11-30T14:15:45.458Z,13.80
2022-11-30T14:18:11.964Z,13.57
2022-11-30T14:20:50.596Z,13.17
2022-11-30T14:23:55.494Z,15.13
2022-11-30T14:26:32.470Z,13.20
2022-11-30T14:29:08.030Z,10.80
2022-11-30T14:31:40.811Z,12.00
2022-11-30T14:34:18.530Z,12.53
2022-11-30T14:36:50.776Z,14.50
2022-11-30T14:39:35.073Z,14.10
2022-11-30T14:42:03.496Z,11.83
2022-11-30T14:44:35.356Z,14.43
2022-11-30T14:47:20.613Z,13.20
2022-11-30T14:49:49.050Z,12.23
2022-11-30T14:52:38.517Z,12.40
2022-11-30T14:55:27.732Z,10.80
2022-11-30T14:58:07.134Z,11.80
2022-11-30T15:00:39.715Z,14.77
2022-11-30T15:03:17.567Z,11.47
2022-11-30T15:05:44.442Z,14.73
2022-11-30T15:08:16.368Z,12.77
2022-11-30T15:10:43.666Z,14.00
2022-11-30T15:13:14.640Z,15.30
2022-11-30T15:15:52.996Z,14.20
2022-11-30T15:18:22.319Z,14.47
2022-11-30T15:20:57.414Z,14.67
2022-11-30T15:23:23.988Z,15.70
2022-11-30T15:26:04.302Z,16.10
2022-11-30T15:28:38.706Z,15.00
2022-11-30T15:31:10.630Z,14.50
2022-11-30T15:33:43.008Z,12.43
2022-11-30T15:36:27.919Z,14.80
2022-11-30T15:38:56.311Z,13.03
2022-11-30T15:41:25.398Z,15.10
2022-11-30T15:43:55.068Z,13.70
2022-11-30T15:46:46.170Z,15.13
2022-11-30T15:49:22.765Z,15.53
2022-11-30T15:52:00.840Z,16.40
2022-11-30T15:55:03.221Z,14.90
2022-11-30T15:58:02.185Z,14.47
2022-11-30T16:00:29.361Z,17.00
2022-11-30T16:03:13.080Z,16.33
2022-11-30T16:05:40.232Z,15.90
2022-11-30T16:08:16.487Z,18.23
2022-11-30T16:10:43.790Z,16.27
2022-11-30T16:13:18.982Z,16.77
2022-11-30T16:15:47.926Z,15.83
2022-11-30T16:18:23.611Z,15.43
2022-11-30T16:20:53.135Z,16.47
2022-11-30T16:23:20.558Z,17.80
2022-11-30T16:25:48.665Z,18.67
2022-11-30T16:28:17.223Z,17.57
2022-11-30T16:30:45.437Z,18.30
2022-11-30T16:33:17.539Z,18.17
2022-11-30T16:35:53.182Z,19.17
2022-11-30T16:38:20.022Z,19.40
2022-11-30T16:40:46.552Z,18.40
2022-11-30T16:43:13.461Z,17.70
2022-11-30T16:45:41.675Z,18.13
2022-11-30T16:48:08.206Z,18.37
2022-11-30T16:50:34.985Z,19.80
2022-11-30T16:53:05.259Z,18.33
2022-11-30T16:55:37.798Z,17.17
2022-11-30T16:58:05.108Z,18.43
2022-11-30T17:00:32.345Z,17.37
2022-11-30T17:03:16.768Z,16.90
2022-11-30T17:05:43.277Z,17.27
2022-11-30T17:08:10.973Z,18.90
2022-11-30T17:10:38.579Z,17.60
2022-11-30T17:13:05.951Z,17.77
2022-11-30T17:15:32.378Z,17.83
2022-11-30T17:17:59.416Z,18.10
2022-11-30T17:20:27.549Z,18.30
2022-11-30T17:22:54.050Z,17.33
2022-11-30T17:25:23.934Z,18.87
2022-11-30T17:27:51.529Z,17.57
2022-11-30T17:30:20.110Z,18.77
2022-11-30T17:32:47.416Z,18.27
2022-11-30T17:35:14.491Z,19.33
2022-11-30T17:37:40.991Z,17.30
2022-11-30T17:40:08.491Z,18.93
2022-11-30T17:42:34.933Z,19.20
2022-11-30T17:45:01.332Z,19.60
2022-11-30T17:47:27.794Z,21.13
2022-11-30T17:49:54.223Z,23.87
2022-11-30T17:52:20.622Z,22.93
2022-11-30T17:54:47.354Z,20.57
2022-11-30T17:57:14.052Z,19.13
2022-11-30T17:59:40.562Z,17.93
2022-11-30T18:02:09.372Z,20.10
2022-11-30T18:04:35.891Z,17.60
2022-11-30T18:07:02.381Z,18.80
2022-11-30T18:09:28.863Z,17.20
2022-11-30T18:11:55.394Z,17.13
2022-11-30T18:14:21.790Z,19.27
2022-11-30T18:16:48.334Z,18.73
2022-11-30T18:19:15.509Z,19.13
2022-11-30T18:21:44.184Z,18.83
2022-11-30T18:24:12.142Z,19.80
2022-11-30T18:26:39.529Z,19.33
2022-11-30T18:29:06.531Z,18.87
2022-11-30T18:31:33.341Z,18.07
2022-11-30T18:34:02.295Z,16.87
2022-11-30T18:36:29.224Z,18.47
2022-11-30T18:38:56.062Z,18.30
2022-11-30T18:41:26.152Z,19.70
2022-11-30T18:43:53.662Z,19.20
2022-11-30T18:46:20.599Z,19.50
2022-11-30T18:48:51.839Z,18.60
2022-11-30T18:51:21.463Z,17.40
2022-11-30T18:53:47.990Z,18.43
2022-11-30T18:56:20.242Z,18.20
2022-11-30T18:58:47.824Z,20.07
2022-11-30T19:01:19.403Z,19.27
2022-11-30T19:03:59.150Z,19.27
2022-11-30T19:06:29.487Z,17.00
2022-11-30T19:08:56.580Z,18.13
2022-11-30T19:11:23.140Z,18.43
2022-11-30T19:13:57.269Z,18.67
2022-11-30T19:16:24.777Z,17.33
2022-11-30T19:18:52.271Z,17.63
2022-11-30T19:21:21.046Z,18.73
2022-11-30T19:23:48.019Z,18.53
2022-11-30T19:26:15.280Z,18.57
2022-11-30T19:28:43.489Z,17.53
2022-11-30T19:31:11.788Z,17.93
2022-11-30T19:33:39.818Z,19.07
2022-11-30T19:36:08.689Z,18.67
2022-11-30T19:38:35.246Z,19.07
2022-11-30T19:41:20.905Z,18.10
2022-11-30T19:43:54.786Z,18.07
2022-11-30T19:46:24.050Z,18.30
2022-11-30T19:48:55.615Z,17.47
2022-11-30T19:51:22.279Z,17.67
2022-11-30T19:53:48.691Z,17.53
2022-11-30T19:56:17.238Z,17.43
2022-11-30T19:58:45.829Z,17.00
2022-11-30T20:01:17.281Z,17.10
2022-11-30T20:03:45.481Z,16.93
2022-11-30T20:06:12.064Z,18.17
2022-11-30T20:08:39.074Z,16.90
2022-11-30T20:11:07.359Z,17.83
2022-11-30T20:13:33.797Z,19.10
2022-11-30T20:16:07.190Z,17.40
2022-11-30T20:18:33.735Z,17.33
2022-11-30T20:21:13.024Z,17.40
2022-11-30T20:23:40.069Z,18.43
2022-11-30T20:26:21.381Z,19.87
2022-11-30T20:28:48.972Z,19.03
2022-11-30T20:31:17.682Z,19.83
2022-11-30T20:33:44.775Z,19.13
2022-11-30T20:36:11.996Z,19.70
2022-11-30T20:38:39.151Z,18.90
2022-11-30T20:41:09.907Z,18.63
2022-11-30T20:43:36.348Z,18.17
2022-11-30T20:46:02.940Z,17.93
2022-11-30T20:48:29.444Z,19.23
2022-11-30T20:51:22.042Z,18.33
2022-11-30T20:53:42.466Z,17.47
2022-11-30T20:56:09.544Z,18.57
2022-11-30T20:58:36.241Z,18.87
2022-11-30T21:01:19.143Z,17.83
2022-11-30T21:03:46.480Z,18.03
2022-11-30T21:06:14.527Z,17.90
2022-11-30T21:08:41.621Z,18.57
2022-11-30T21:11:11.578Z,17.53
2022-11-30T21:13:38.610Z,19.43
2022-11-30T21:16:07.029Z,17.13
2022-11-30T21:18:38.344Z,16.90
2022-11-30T21:21:07.104Z,18.23
2022-11-30T21:23:33.818Z,18.07
2022-11-30T21:26:04.795Z,17.77
2022-11-30T21:28:37.687Z,17.97
2022-11-30T21:31:04.800Z,18.20
2022-11-30T21:33:31.620Z,18.87
2022-11-30T21:35:58.100Z,18.20
2022-11-30T21:38:24.670Z,17.87
2022-11-30T21:40:59.190Z,16.93
2022-11-30T21:43:26.969Z,17.83
2022-11-30T21:46:07.658Z,18.87
2022-11-30T21:48:36.898Z,18.20
2022-11-30T21:51:18.188Z,18.73
2022-11-30T21:53:47.672Z,17.77
2022-11-30T21:56:17.347Z,17.73
2022-11-30T21:58:46.155Z,18.63
2022-11-30T22:01:14.255Z,18.23
2022-11-30T22:03:41.041Z,18.17
2022-11-30T22:06:10.539Z,16.27
2022-11-30T22:08:37.023Z,19.63
2022-11-30T22:11:05.949Z,18.70
2022-11-30T22:13:33.371Z,18.10
2022-11-30T22:16:02.452Z,17.67
2022-11-30T22:18:29.613Z,16.87
2022-11-30T22:21:05.903Z,18.17
2022-11-30T22:23:34.131Z,17.33
2022-11-30T22:26:28.212Z,17.27
2022-11-30T22:28:56.012Z,17.20
2022-11-30T22:31:25.073Z,17.70
2022-11-30T22:33:51.582Z,17.03
2022-11-30T22:36:21.139Z,18.07
2022-11-30T22:38:52.816Z,15.90
2022-11-30T22:41:19.234Z,17.50
2022-11-30T22:43:46.726Z,18.27
2022-11-30T22:46:16.347Z,17.60
2022-11-30T22:48:45.458Z,17.87
2022-11-30T22:51:15.099Z,18.23
2022-11-30T22:53:41.845Z,17.70
2022-11-30T22:56:12.779Z,17.23
2022-11-30T22:58:41.004Z,16.57
2022-11-30T23:01:12.695Z,16.77
2022-11-30T23:03:40.300Z,20.03
2022-11-30T23:06:07.191Z,17.73
2022-11-30T23:08:34.866Z,16.93
2022-11-30T23:11:04.282Z,15.03
2022-11-30T23:13:31.291Z,15.17
2022-11-30T23:15:59.838Z,15.57
2022-11-30T23:18:27.941Z,14.17
2022-11-30T23:20:55.397Z,14.53
2022-11-30T23:23:25.043Z,14.93
2022-11-30T23:25:51.468Z,16.37
2022-11-30T23:28:17.906Z,15.60
2022-11-30T23:30:44.443Z,15.33
2022-11-30T23:33:10.889Z,15.57
2022-11-30T23:35:43.215Z,15.27
2022-11-30T23:38:10.879Z,16.07
2022-11-30T23:40:37.274Z,17.83
2022-11-30T23:43:03.733Z,16.73
2022-11-30T23:45:30.138Z,16.90
2022-11-30T23:47:56.536Z,16.50
2022-11-30T23:50:22.930Z,15.70
2022-11-30T23:52:49.355Z,16.83
2022-11-30T23:55:15.900Z,17.37
2022-11-30T23:57:42.344Z,16.90
